Time;durP1;ratioP1;P1;durP2;ratioP2;P2;SDS_P1;SDS_P2;PMS_P1;PMS_P2;Temp;Humidity;BMP_temperature;BMP_pressure;BME280_temperature;BME280_humidity;BME280_pressure;Samples;Min_cycle;Max_cycle;Signal;HPM_P1;HPM_P2
2021/08/30 05:11:50;;;;;;;8.98;2.95;;;;;;;32.54;18.89;100826.91;1834431;76;24764;-74
2021/08/30 05:14:24;;;;;;;5.55;3.33;;;;;;;32.58;18.85;100816.33;1813106;78;21282;-78
2021/08/30 05:16:57;;;;;;;6.12;2.95;;;;;;;32.89;18.13;100817.23;1790340;78;21293;-73
2021/08/30 05:19:30;;;;;;;14.95;3.50;;;;;;;33.17;17.75;100810.73;1762302;80;21252;-80
2021/08/30 05:22:04;;;;;;;11.25;3.25;;;;;;;33.43;17.83;100811.56;1764951;80;21165;-76
2021/08/30 05:24:37;;;;;;;6.78;3.30;;;;;;;33.81;17.08;100809.62;1767053;79;21266;-75
2021/08/30 05:27:11;;;;;;;7.05;3.33;;;;;;;33.82;16.91;100808.52;1764562;79;21358;-77
2021/08/30 05:29:46;;;;;;;10.18;3.20;;;;;;;33.85;17.11;100806.61;1765663;79;21264;-76
2021/08/30 05:32:19;;;;;;;7.28;3.15;;;;;;;33.95;16.21;100809.02;1765011;79;21350;-79
2021/08/30 05:34:52;;;;;;;9.35;3.50;;;;;;;33.97;16.28;100802.22;1766364;79;21870;-75
2021/08/30 05:37:25;;;;;;;5.80;3.42;;;;;;;34.16;16.33;100806.52;1768694;79;21132;-79
2021/08/30 05:39:59;;;;;;;5.87;3.22;;;;;;;34.37;16.07;100803.43;1711899;82;21125;-75
2021/08/30 05:42:32;;;;;;;13.78;4.55;;;;;;;34.55;15.53;100811.53;1708810;82;21349;-73
2021/08/30 05:45:06;;;;;;;13.90;4.40;;;;;;;34.67;15.88;100804.38;1710418;82;21336;-76
2021/08/30 05:47:39;;;;;;;9.15;4.20;;;;;;;34.82;15.44;100808.38;1697934;82;21275;-77
2021/08/30 05:50:12;;;;;;;16.95;4.95;;;;;;;34.96;15.28;100820.23;1706176;82;21330;-77
2021/08/30 05:52:45;;;;;;;11.18;3.45;;;;;;;35.11;15.03;100800.54;1698113;83;22603;-78
2021/08/30 05:55:19;;;;;;;8.55;3.27;;;;;;;35.16;15.08;100804.58;1716258;82;21851;-82
2021/08/30 05:57:52;;;;;;;9.88;3.62;;;;;;;35.28;15.18;100804.20;1702343;82;21844;-75
2021/08/30 06:00:26;;;;;;;6.37;3.40;;;;;;;35.56;14.64;100818.96;1710271;83;21309;-75
2021/08/30 06:03:01;;;;;;;5.30;3.40;;;;;;;35.68;14.51;100807.13;1672042;83;21334;-75
2021/08/30 06:05:35;;;;;;;5.55;3.17;;;;;;;35.89;14.41;100809.88;1710924;82;21173;-69
2021/08/30 06:08:09;;;;;;;16.30;4.75;;;;;;;36.24;14.07;100805.93;1686834;83;21138;-70
2021/08/30 06:10:43;;;;;;;9.23;4.30;;;;;;;36.37;14.33;100810.13;1697766;83;21329;-70
2021/08/30 06:13:16;;;;;;;8.15;3.40;;;;;;;36.79;13.97;100813.91;1750032;79;21285;-72
2021/08/30 06:15:50;;;;;;;8.70;3.30;;;;;;;37.20;13.64;100811.36;1750277;79;21181;-70
2021/08/30 06:18:25;;;;;;;6.53;3.08;;;;;;;37.43;13.16;100810.43;1747192;79;21453;-72
2021/08/30 06:20:58;;;;;;;8.03;3.50;;;;;;;37.67;13.13;100822.00;1745966;79;21222;-69
2021/08/30 06:23:31;;;;;;;9.15;3.52;;;;;;;37.59;12.90;100804.38;1749900;80;21241;-74
2021/08/30 06:26:05;;;;;;;7.12;3.40;;;;;;;37.35;13.08;100813.29;1744999;79;21565;-72
2021/08/30 06:28:39;;;;;;;6.47;3.58;;;;;;;37.28;13.18;100822.98;1748798;79;21257;-75
2021/08/30 06:31:12;;;;;;;7.55;4.58;;;;;;;37.21;13.11;100803.44;1746360;79;21213;-72
2021/08/30 06:33:46;;;;;;;15.75;3.72;;;;;;;37.35;13.54;100814.66;1749697;79;21261;-75
2021/08/30 06:36:19;;;;;;;8.60;3.27;;;;;;;37.77;12.81;100802.69;1749662;81;21866;-76
2021/08/30 06:38:52;;;;;;;14.70;4.53;;;;;;;38.02;12.66;100798.67;1745371;79;21355;-71
2021/08/30 06:41:25;;;;;;;9.70;3.47;;;;;;;38.29;12.61;100796.73;1753024;79;21334;-74
2021/08/30 06:43:59;;;;;;;8.80;3.60;;;;;;;38.49;12.19;100800.95;1745851;81;21299;-74
2021/08/30 06:46:32;;;;;;;15.03;4.37;;;;;;;38.43;12.16;100813.11;1750252;81;21358;-73
2021/08/30 06:49:06;;;;;;;6.10;3.47;;;;;;;38.45;12.27;100791.75;1750330;79;21299;-76
2021/08/30 06:51:39;;;;;;;8.15;3.02;;;;;;;38.61;12.20;100790.82;1688344;82;21347;-73
2021/08/30 06:54:12;;;;;;;5.25;3.20;;;;;;;38.61;11.81;100805.88;1751157;79;21310;-77
2021/08/30 06:56:45;;;;;;;6.62;3.72;;;;;;;38.39;11.98;100782.02;1750067;80;21245;-77
2021/08/30 06:59:18;;;;;;;7.17;3.60;;;;;;;38.32;12.14;100780.27;1744653;80;21905;-75
2021/08/30 07:01:51;;;;;;;15.93;4.00;;;;;;;38.43;12.26;100787.12;1751601;79;21787;-70
2021/08/30 07:04:25;;;;;;;6.20;3.25;;;;;;;38.57;11.76;100784.36;1744550;79;21309;-72
2021/08/30 07:06:58;;;;;;;10.80;3.67;;;;;;;38.47;11.71;100794.98;1753375;79;21886;-69
2021/08/30 07:09:31;;;;;;;7.87;3.02;;;;;;;38.40;11.83;100785.02;1750935;81;21335;-77
2021/08/30 07:12:06;;;;;;;7.53;3.77;;;;;;;38.48;11.79;100778.02;1750604;79;21848;-70
2021/08/30 07:14:40;;;;;;;10.58;3.47;;;;;;;38.60;11.78;100778.28;1747969;79;21288;-76
2021/08/30 07:17:13;;;;;;;7.85;3.30;;;;;;;38.77;11.83;100776.50;1746451;79;21298;-78
2021/08/30 07:19:46;;;;;;;10.38;4.12;;;;;;;39.02;11.64;100777.25;1751787;79;21292;-74
2021/08/30 07:22:19;;;;;;;7.33;3.85;;;;;;;39.35;11.49;100779.71;1750048;81;21354;-74
2021/08/30 07:24:53;;;;;;;17.30;5.20;;;;;;;39.64;11.32;100784.97;1745920;81;21345;-72
2021/08/30 07:27:26;;;;;;;9.98;4.30;;;;;;;39.78;11.10;100785.40;1748378;79;21315;-79
2021/08/30 07:29:59;;;;;;;6.90;3.52;;;;;;;39.82;11.12;100772.11;1716546;81;21294;-77
2021/08/30 07:32:32;;;;;;;8.88;3.92;;;;;;;39.99;11.10;100765.86;1689898;82;21233;-73
2021/08/30 07:35:06;;;;;;;7.97;3.50;;;;;;;40.12;11.12;100765.77;1748122;80;21173;-70
2021/08/30 07:37:39;;;;;;;7.30;3.55;;;;;;;40.32;10.82;100772.55;1749298;79;21249;-71
2021/08/30 07:40:15;;;;;;;9.15;3.98;;;;;;;40.51;10.77;100759.35;1673926;84;21192;-76
2021/08/30 07:42:48;;;;;;;8.88;3.80;;;;;;;40.71;10.74;100765.58;1746939;79;21280;-69
2021/08/30 07:45:21;;;;;;;8.98;4.08;;;;;;;40.60;10.53;100753.88;1749599;79;21154;-75
2021/08/30 07:47:54;;;;;;;8.23;4.45;;;;;;;40.50;10.65;100771.48;1751551;80;21276;-75
2021/08/30 07:50:28;;;;;;;6.45;3.55;;;;;;;40.39;10.86;100757.00;1744352;79;21327;-73
2021/08/30 07:53:01;;;;;;;4.62;3.62;;;;;;;40.46;10.91;100748.53;1751733;79;21201;-73
2021/08/30 07:55:36;;;;;;;12.78;3.77;;;;;;;40.78;10.81;100751.34;1755183;79;21305;-75
2021/08/30 07:58:09;;;;;;;11.05;4.22;;;;;;;40.95;10.56;100767.27;1743690;80;21315;-77
2021/08/30 08:00:42;;;;;;;7.45;3.65;;;;;;;40.92;10.51;100756.92;1749871;81;21293;-76
2021/08/30 08:03:16;;;;;;;7.53;3.72;;;;;;;41.00;10.64;100742.94;1748595;79;21383;-72
2021/08/30 08:05:49;;;;;;;6.58;4.12;;;;;;;41.49;10.55;100744.23;1744705;81;21929;-71
2021/08/30 08:08:22;;;;;;;7.72;3.90;;;;;;;41.64;10.10;100718.37;1748663;79;21288;-72
2021/08/30 08:10:57;;;;;;;6.40;3.87;;;;;;;41.69;10.25;100723.47;1744392;79;22162;-75
2021/08/30 08:13:30;;;;;;;10.13;4.30;;;;;;;41.78;10.22;100722.28;1750832;80;21300;-75
2021/08/30 08:16:04;;;;;;;7.65;3.65;;;;;;;41.80;10.03;100727.47;1766302;79;21283;-71
2021/08/30 08:18:38;;;;;;;8.90;5.87;;;;;;;41.43;10.11;100723.59;1700864;82;21377;-70
2021/08/30 08:21:11;;;;;;;10.95;5.67;;;;;;;41.20;10.15;100724.36;1693790;82;21311;-75
2021/08/30 08:23:44;;;;;;;10.93;5.20;;;;;;;41.19;10.22;100713.16;1694891;82;21936;-75
2021/08/30 08:26:17;;;;;;;7.40;5.58;;;;;;;41.14;10.36;100713.33;1711969;81;21338;-76
2021/08/30 08:28:51;;;;;;;5.72;4.25;;;;;;;41.20;10.33;100713.96;1716235;81;21893;-68
2021/08/30 08:31:26;;;;;;;14.50;4.10;;;;;;;41.29;10.39;100711.45;1691823;82;21268;-73
2021/08/30 08:33:59;;;;;;;6.10;4.33;;;;;;;41.23;10.22;100716.84;1712703;82;21279;-73
2021/08/30 08:36:32;;;;;;;7.70;4.05;;;;;;;40.94;10.44;100725.01;1714486;83;21328;-77
2021/08/30 08:39:06;;;;;;;10.48;4.17;;;;;;;40.66;10.38;100708.65;1709305;82;21274;-72
2021/08/30 08:41:39;;;;;;;5.53;3.50;;;;;;;40.38;10.64;100693.08;1709523;82;21328;-74
2021/08/30 08:44:12;;;;;;;20.27;4.30;;;;;;;40.41;10.67;100693.81;1704163;82;21355;-74
2021/08/30 08:46:45;;;;;;;8.70;3.80;;;;;;;40.47;10.65;100698.58;1711311;82;21246;-75
2021/08/30 08:49:21;;;;;;;6.30;3.40;;;;;;;40.26;10.74;100702.53;1711603;83;21296;-74
2021/08/30 08:51:54;;;;;;;9.48;4.08;;;;;;;40.11;10.82;100700.25;1712113;82;21324;-76
2021/08/30 08:54:27;;;;;;;8.63;4.00;;;;;;;40.02;11.04;100693.96;1711610;83;21296;-72
2021/08/30 08:57:04;;;;;;;10.10;4.00;;;;;;;39.82;11.21;100690.42;1711634;82;21902;-73
2021/08/30 08:59:39;;;;;;;11.00;3.92;;;;;;;39.61;11.26;100682.81;1714575;82;21836;-73
2021/08/30 09:02:14;;;;;;;11.75;3.72;;;;;;;39.44;11.20;100692.33;1707576;83;21479;-76
2021/08/30 09:04:47;;;;;;;11.25;4.08;;;;;;;39.23;11.43;100683.06;1685118;83;21181;-75
2021/08/30 09:07:20;;;;;;;9.53;3.65;;;;;;;39.18;11.79;100683.76;1709108;82;21293;-75
2021/08/30 09:09:57;;;;;;;11.20;4.33;;;;;;;39.21;11.59;100679.84;1708362;82;21826;-74
2021/08/30 09:12:30;;;;;;;7.20;4.22;;;;;;;39.02;11.61;100669.09;1670135;83;21729;-73
2021/08/30 09:15:26;;;;;;;11.78;3.77;;;;;;;38.80;11.72;100663.66;1706923;83;21309;-76
2021/08/30 09:17:59;;;;;;;6.83;3.62;;;;;;;38.62;11.82;100676.95;1698121;82;21287;-74
2021/08/30 09:20:32;;;;;;;10.53;4.17;;;;;;;38.34;12.12;100670.80;1749730;79;21351;-75
2021/08/30 09:23:15;;;;;;;11.68;3.75;;;;;;;38.16;12.52;100676.42;1746513;79;21323;-77
2021/08/30 09:25:48;;;;;;;7.08;4.37;;;;;;;38.04;12.18;100672.86;1748815;81;21788;-72
2021/08/30 09:28:33;;;;;;;9.30;3.85;;;;;;;37.72;12.71;100661.51;1747731;79;21225;-76
2021/08/30 09:31:06;;;;;;;10.58;3.85;;;;;;;37.64;12.68;100664.95;1743227;79;21235;-70
2021/08/30 09:33:49;;;;;;;6.85;4.15;;;;;;;37.42;12.90;100675.81;1747129;81;21146;-74
2021/08/30 09:36:22;;;;;;;8.80;3.80;;;;;;;37.10;13.16;100658.92;1746180;81;21288;-77
2021/08/30 09:38:57;;;;;;;10.38;3.72;;;;;;;36.81;13.29;100658.33;1757774;81;21313;-72
2021/08/30 09:41:32;;;;;;;20.00;4.10;;;;;;;36.58;13.61;100678.93;1758062;79;21194;-76
2021/08/30 09:44:06;;;;;;;6.10;3.60;;;;;;;36.34;13.58;100668.10;1754381;79;21154;-75
2021/08/30 09:46:39;;;;;;;6.10;3.98;;;;;;;36.02;13.83;100656.58;1746776;79;21339;-74
2021/08/30 09:49:14;;;;;;;11.40;4.08;;;;;;;35.72;14.20;100665.16;1751142;81;21270;-75
2021/08/30 09:51:52;;;;;;;7.08;3.95;;;;;;;35.44;14.19;100666.02;1752782;79;21304;-74
2021/08/30 09:54:27;;;;;;;10.80;3.98;;;;;;;35.09;14.52;100657.14;1748661;79;21189;-72
2021/08/30 09:56:59;;;;;;;5.85;3.90;;;;;;;34.78;15.09;100657.69;1753862;79;21268;-74
2021/08/30 09:59:32;;;;;;;8.10;3.85;;;;;;;34.69;15.09;100666.20;1745902;79;21620;-78
2021/08/30 10:02:06;;;;;;;10.65;3.60;;;;;;;34.49;15.39;100651.66;1747215;81;21797;-72
2021/08/30 10:04:44;;;;;;;11.80;4.20;;;;;;;34.21;15.43;100665.19;1728956;79;21299;-72
2021/08/30 10:07:18;;;;;;;10.35;3.90;;;;;;;33.98;15.64;100658.52;1754089;81;22587;-77
2021/08/30 10:09:53;;;;;;;8.20;3.80;;;;;;;33.80;16.17;100664.57;1746017;81;21199;-77
2021/08/30 10:12:28;;;;;;;7.10;4.00;;;;;;;33.69;15.70;100648.07;1749533;81;21170;-76
2021/08/30 10:15:00;;;;;;;;;;;;;;;33.61;15.88;100651.36;1690240;82;21377;-74
2021/08/30 10:17:33;;;;;;;14.05;4.10;;;;;;;33.47;16.14;100655.19;1702337;82;20273;-72
2021/08/30 10:20:08;;;;;;;16.50;4.15;;;;;;;33.25;16.03;100650.64;1702815;82;21318;-73
2021/08/30 10:22:41;;;;;;;12.25;4.75;;;;;;;33.07;16.43;100647.17;1676125;83;21312;-76
2021/08/30 10:25:16;;;;;;;;;;;;;;;33.01;16.19;100677.52;1713015;82;21160;-73
2021/08/30 10:28:05;;;;;;;7.65;4.22;;;;;;;32.87;16.46;100647.16;1711482;82;20165;-76
2021/08/30 10:30:39;;;;;;;12.23;4.05;;;;;;;32.76;16.59;100658.58;1708424;82;21819;-78
2021/08/30 10:33:13;;;;;;;20.23;4.37;;;;;;;32.68;16.49;100646.09;1705131;82;21276;-71
2021/08/30 10:35:46;;;;;;;8.58;4.40;;;;;;;32.58;16.84;100646.91;1696875;83;21669;-75
2021/08/30 10:38:20;;;;;;;;;;;;;;;32.48;16.50;100635.49;1714327;82;21244;-76
2021/08/30 10:40:57;;;;;;;13.20;4.08;;;;;;;32.41;17.14;100637.66;1705563;82;20495;-76
2021/08/30 10:43:30;;;;;;;10.40;4.20;;;;;;;32.43;16.81;100640.13;1710200;82;21299;-73
2021/08/30 10:46:03;;;;;;;8.20;3.33;;;;;;;32.40;17.10;100627.92;1663415;83;21261;-72
2021/08/30 10:48:39;;;;;;;17.30;6.87;;;;;;;32.37;16.81;100631.70;1652468;83;21315;-74
2021/08/30 10:51:21;;;;;;;9.53;4.70;;;;;;;32.31;16.74;100632.26;1706839;82;22001;-73
2021/08/30 10:54:02;;;;;;;7.35;4.10;;;;;;;32.26;16.70;100620.59;1706240;82;21692;-76
2021/08/30 10:56:35;;;;;;;5.35;3.40;;;;;;;32.23;16.99;100625.19;1675148;83;21316;-73
2021/08/30 10:59:12;;;;;;;7.22;4.03;;;;;;;32.27;17.32;100628.44;1708649;82;21819;-73
2021/08/30 11:02:03;;;;;;;9.03;4.10;;;;;;;32.28;17.13;100639.56;1707285;82;21312;-72
2021/08/30 11:04:41;;;;;;;10.80;4.47;;;;;;;32.23;17.01;100608.39;1696971;84;21291;-75
2021/08/30 11:07:15;;;;;;;15.98;3.95;;;;;;;32.20;17.47;100607.58;1692778;82;21314;-72
2021/08/30 11:09:48;;;;;;;9.88;4.15;;;;;;;32.23;17.61;100595.39;1697963;83;21321;-72
2021/08/30 11:12:22;;;;;;;10.90;4.10;;;;;;;32.25;17.38;100614.36;1698342;83;21164;-73
2021/08/30 11:14:57;;;;;;;7.62;3.83;;;;;;;32.22;17.14;100600.55;1697503;83;21210;-75
2021/08/30 11:17:36;;;;;;;8.40;3.77;;;;;;;32.19;17.32;100594.31;1697312;83;21322;-72
2021/08/30 11:20:11;;;;;;;6.80;3.60;;;;;;;32.16;17.51;100600.25;1716437;81;21294;-73
2021/08/30 11:22:45;;;;;;;11.38;4.55;;;;;;;32.15;17.99;100600.00;1717566;81;21279;-71
2021/08/30 11:25:18;;;;;;;16.50;4.75;;;;;;;32.19;17.57;100595.66;1714696;82;21169;-72
2021/08/30 11:27:51;;;;;;;13.43;4.67;;;;;;;32.22;17.59;100591.06;1700604;83;21432;-72
2021/08/30 11:30:24;;;;;;;8.28;3.27;;;;;;;32.24;17.97;100597.84;1697420;81;21256;-73
2021/08/30 11:32:57;;;;;;;10.82;3.55;;;;;;;32.25;17.53;100581.84;1697958;82;21213;-72
2021/08/30 11:35:30;;;;;;;;;;;;;;;32.22;17.49;100591.06;1699285;82;21232;-69
2021/08/30 11:38:11;;;;;;;10.32;3.55;;;;;;;32.20;17.73;100575.06;1696991;83;20217;-76
2021/08/30 11:40:44;;;;;;;14.25;3.87;;;;;;;32.19;18.12;100592.95;1700207;82;21169;-71
2021/08/30 11:43:18;;;;;;;10.88;3.98;;;;;;;32.22;18.09;100583.73;1700587;83;21329;-73
2021/08/30 11:45:50;;;;;;;;;;;;;;;32.23;17.68;100573.71;1697277;83;21342;-74
2021/08/30 11:48:23;;;;;;;6.47;3.85;;;;;;;32.18;17.79;100569.64;1703142;83;20662;-77
2021/08/30 11:51:01;;;;;;;10.45;3.70;;;;;;;32.12;18.04;100573.45;1697719;83;21907;-74
2021/08/30 11:53:34;;;;;;;7.78;3.77;;;;;;;32.14;18.02;100565.86;1701986;83;21359;-74
2021/08/30 11:56:06;;;;;;;;;;;;;;;32.16;18.34;100573.17;1702578;83;21234;-73
2021/08/30 11:58:39;;;;;;;12.60;4.47;;;;;;;32.18;17.65;100565.05;1695389;83;20357;-74
2021/08/30 12:01:12;;;;;;;11.12;5.00;;;;;;;32.12;17.56;100552.59;1701848;83;21237;-71
2021/08/30 12:03:45;;;;;;;;;;;;;;;32.07;18.24;100556.66;1700663;83;21701;-75
2021/08/30 12:06:20;;;;;;;18.17;4.62;;;;;;;32.07;18.29;100564.78;1713422;82;20569;-73
2021/08/30 12:08:58;;;;;;;10.45;5.35;;;;;;;32.09;18.19;100584.81;1696477;82;21358;-71
2021/08/30 12:11:35;;;;;;;9.90;4.03;;;;;;;32.10;18.08;100569.63;1697210;83;21334;-72
2021/08/30 12:14:10;;;;;;;9.40;3.95;;;;;;;32.08;17.73;100564.22;1703445;83;21247;-75
2021/08/30 12:16:46;;;;;;;9.00;4.00;;;;;;;32.01;18.00;100563.13;1714018;82;21293;-73
2021/08/30 12:19:19;;;;;;;8.40;4.30;;;;;;;31.96;17.86;100553.08;1710743;82;21235;-74
2021/08/30 12:21:51;;;;;;;;;;;;;;;31.90;18.14;100545.23;1682891;83;21130;-71
2021/08/30 12:24:25;;;;;;;15.75;4.55;;;;;;;31.89;18.26;100563.36;1709763;83;20256;-72
2021/08/30 12:26:58;;;;;;;8.70;4.45;;;;;;;31.89;18.21;100549.82;1710821;82;21168;-72
2021/08/30 12:29:35;;;;;;;6.60;4.65;;;;;;;31.90;18.12;100552.81;1682794;83;21139;-72
2021/08/30 12:32:09;;;;;;;8.00;4.40;;;;;;;31.87;18.17;100557.94;1708970;82;21298;-73
2021/08/30 12:34:42;;;;;;;10.35;4.47;;;;;;;31.87;18.35;100558.76;1716032;82;21570;-71
2021/08/30 12:37:15;;;;;;;11.10;4.65;;;;;;;31.88;18.11;100552.81;1711723;83;21280;-74
2021/08/30 12:39:49;;;;;;;10.10;5.25;;;;;;;31.87;18.45;100549.28;1707801;82;21351;-71
2021/08/30 12:42:24;;;;;;;7.83;4.58;;;;;;;31.86;18.10;100544.94;1709619;83;21296;-74
2021/08/30 12:44:57;;;;;;;12.90;4.80;;;;;;;31.85;18.39;100540.62;1713298;82;21334;-74
2021/08/30 12:47:30;;;;;;;7.08;3.90;;;;;;;31.86;18.58;100567.16;1707458;83;21230;-73
2021/08/30 12:50:04;;;;;;;7.10;4.30;;;;;;;31.85;18.19;100546.57;1713010;82;21335;-73
2021/08/30 12:52:37;;;;;;;8.95;4.53;;;;;;;31.82;18.32;100546.56;1707793;82;21205;-72
2021/08/30 12:55:12;;;;;;;11.97;4.42;;;;;;;31.79;18.36;100549.80;1704671;82;21323;-72
2021/08/30 12:57:45;;;;;;;10.18;4.97;;;;;;;31.75;18.44;100542.48;1714127;82;21352;-72
2021/08/30 13:00:19;;;;;;;7.22;4.37;;;;;;;31.73;18.71;100540.59;1707869;82;21177;-72
2021/08/30 13:02:52;;;;;;;8.23;4.05;;;;;;;31.73;18.62;100540.06;1708544;82;21206;-71
2021/08/30 13:05:28;;;;;;;7.67;4.55;;;;;;;31.73;18.72;100539.23;1708339;82;21177;-71
2021/08/30 13:08:02;;;;;;;7.58;4.67;;;;;;;31.72;18.73;100536.25;1709912;82;21323;-73
2021/08/30 13:10:35;;;;;;;10.32;4.62;;;;;;;31.74;18.57;100534.90;1706943;82;21201;-73
2021/08/30 13:13:09;;;;;;;8.28;4.30;;;;;;;31.75;18.55;100528.95;1707947;82;21245;-74
2021/08/30 13:15:43;;;;;;;;;;;;;;;31.75;18.70;100537.89;1711972;82;21241;-70
2021/08/30 13:18:16;;;;;;;8.78;4.65;;;;;;;31.74;18.42;100524.07;1686039;83;20216;-73
2021/08/30 13:20:52;;;;;;;12.58;4.20;;;;;;;31.69;18.48;100541.66;1709354;82;21281;-71
2021/08/30 13:23:24;;;;;;;13.30;4.95;;;;;;;31.68;18.40;100548.70;1690420;82;21763;-73
2021/08/30 13:25:59;;;;;;;8.70;4.55;;;;;;;31.67;18.40;100530.85;1660988;84;21241;-71
2021/08/30 13:28:32;;;;;;;5.97;3.98;;;;;;;31.63;18.35;100519.73;1674547;83;22041;-70
2021/08/30 13:31:06;;;;;;;;;;;;;;;31.62;18.41;100542.45;1672592;85;21237;-71
2021/08/30 13:33:43;;;;;;;8.00;4.40;;;;;;;31.62;18.34;100515.95;1671510;85;20252;-75
2021/08/30 13:36:18;;;;;;;10.05;4.35;;;;;;;31.57;18.35;100537.05;1671395;83;21350;-70
2021/08/30 13:38:51;;;;;;;10.08;4.60;;;;;;;31.53;18.21;100525.12;1669732;83;21340;-72
2021/08/30 13:41:23;;;;;;;;;;;;;;;31.48;18.29;100531.86;1672787;85;22504;-71
2021/08/30 13:43:56;;;;;;;7.22;4.55;;;;;;;31.45;18.46;100527.55;1676698;85;20296;-72
2021/08/30 13:46:29;;;;;;;9.73;4.30;;;;;;;31.41;18.68;100523.72;1666791;85;21193;-71
2021/08/30 13:49:02;;;;;;;;;;;;;;;31.41;18.74;100529.92;1678345;83;21387;-71
2021/08/30 13:51:35;;;;;;;6.70;4.15;;;;;;;31.40;18.76;100541.02;1660086;84;20311;-70
2021/08/30 13:54:09;;;;;;;8.85;4.47;;;;;;;31.38;18.73;100518.30;1667309;84;21213;-71
2021/08/30 13:56:43;;;;;;;12.37;4.72;;;;;;;31.36;18.97;100517.73;1672164;83;21224;-70
2021/08/30 13:59:16;;;;;;;8.30;4.60;;;;;;;31.32;18.90;100523.41;1669821;85;21197;-74
2021/08/30 14:01:52;;;;;;;6.87;4.30;;;;;;;31.30;18.66;100529.63;1669851;85;21312;-73
2021/08/30 14:04:25;;;;;;;6.78;4.70;;;;;;;31.26;18.59;100531.24;1669830;85;21851;-73
2021/08/30 14:06:59;;;;;;;16.50;4.58;;;;;;;31.22;18.86;100526.89;1669865;84;21168;-73
2021/08/30 14:09:33;;;;;;;18.00;4.65;;;;;;;31.21;18.91;100529.87;1664091;85;22221;-71
2021/08/30 14:12:06;;;;;;;13.83;3.92;;;;;;;31.17;18.99;100511.17;1662234;86;21205;-68
2021/08/30 14:14:40;;;;;;;6.78;4.17;;;;;;;31.14;18.84;100523.33;1659434;86;21240;-71
2021/08/30 14:17:16;;;;;;;8.78;4.20;;;;;;;31.14;18.59;100532.80;1661462;86;21288;-72
2021/08/30 14:19:49;;;;;;;14.58;5.03;;;;;;;31.14;18.55;100514.42;1661872;86;21316;-76
2021/08/30 14:22:22;;;;;;;9.15;4.40;;;;;;;31.12;18.64;100519.29;1667869;84;21261;-74
2021/08/30 14:24:54;;;;;;;;;;;;;;;31.08;18.71;100516.28;1740826;82;21563;-74
2021/08/30 14:27:27;;;;;;;9.48;4.47;;;;;;;31.03;18.76;100520.31;1738941;82;20247;-72
2021/08/30 14:30:00;;;;;;;7.15;3.92;;;;;;;30.96;18.85;100520.28;1738330;82;21166;-76
2021/08/30 14:32:33;;;;;;;;;;;;;;;30.92;18.36;100532.70;1741103;82;21281;-76
2021/08/30 14:35:06;;;;;;;6.00;4.37;;;;;;;30.89;18.51;100527.28;1738591;82;20684;-76
2021/08/30 14:37:38;;;;;;;;;;;;;;;30.85;18.79;100545.61;1741323;82;21673;-75
2021/08/30 14:40:12;;;;;;;12.40;4.53;;;;;;;30.82;18.71;100521.80;1738374;82;20228;-73
2021/08/30 14:42:45;;;;;;;10.00;4.15;;;;;;;30.77;19.13;100525.30;1738521;82;21146;-74
2021/08/30 14:45:18;;;;;;;;;;;;;;;30.71;19.20;100536.34;1741127;82;21269;-73
2021/08/30 14:47:51;;;;;;;26.73;6.12;;;;;;;30.66;18.94;100526.32;1738875;82;20601;-73
2021/08/30 14:50:24;;;;;;;9.05;4.83;;;;;;;30.59;19.03;100517.06;1738153;82;21272;-74
2021/08/30 14:52:57;;;;;;;8.03;4.20;;;;;;;30.57;19.08;100523.84;1764767;81;21280;-75
2021/08/30 14:55:30;;;;;;;6.92;4.50;;;;;;;30.53;19.12;100527.58;1769089;81;21297;-76
2021/08/30 14:58:04;;;;;;;5.50;4.17;;;;;;;30.48;19.29;100526.19;1769059;81;21347;-77
2021/08/30 15:00:36;;;;;;;;;;;;;;;30.44;19.51;100529.67;1771052;81;21261;-74
2021/08/30 15:03:11;;;;;;;8.00;4.40;;;;;;;30.39;19.43;100532.34;1769138;81;20248;-75
2021/08/30 15:05:44;;;;;;;8.38;4.17;;;;;;;30.31;19.28;100528.76;1769011;81;21253;-74
2021/08/30 15:08:16;;;;;;;;;;;;;;;30.27;19.30;100520.88;1771987;81;21297;-72
2021/08/30 15:10:50;;;;;;;12.50;5.87;;;;;;;30.23;19.53;100530.05;1767565;80;20181;-77
2021/08/30 15:13:23;;;;;;;9.75;4.55;;;;;;;30.18;19.60;100529.17;1769498;81;21173;-73
2021/08/30 15:15:57;;;;;;;6.83;4.20;;;;;;;30.14;19.67;100535.61;1769152;81;21289;-72
2021/08/30 15:18:30;;;;;;;9.80;4.45;;;;;;;30.10;19.70;100514.78;1768096;81;21261;-72
2021/08/30 15:21:03;;;;;;;;;;;;;;;30.04;19.79;100511.25;1770913;81;21316;-74
2021/08/30 15:23:36;;;;;;;89.72;47.40;;;;;;;29.99;19.91;100513.91;1768897;80;20308;-75
2021/08/30 15:26:10;;;;;;;60.70;34.03;;;;;;;29.92;20.20;100521.41;1767910;81;21151;-74
2021/08/30 15:28:44;;;;;;;40.20;22.10;;;;;;;29.85;20.44;100524.28;1767457;80;21146;-77
2021/08/30 15:31:17;;;;;;;36.93;19.35;;;;;;;29.76;20.72;100521.78;1768936;81;21146;-77
2021/08/30 15:33:50;;;;;;;17.30;7.95;;;;;;;29.65;20.95;100523.25;1769249;81;21257;-70
2021/08/30 15:36:23;;;;;;;18.27;9.43;;;;;;;29.55;21.08;100525.31;1769476;81;21313;-75
2021/08/30 15:38:57;;;;;;;13.95;7.47;;;;;;;29.47;21.31;100526.31;1769185;81;21177;-75
2021/08/30 15:41:31;;;;;;;9.05;5.70;;;;;;;29.37;21.43;100530.23;1752940;81;21288;-76
2021/08/30 15:44:04;;;;;;;12.43;5.72;;;;;;;29.29;21.58;100521.52;1765041;81;21240;-75
2021/08/30 15:46:39;;;;;;;20.08;8.15;;;;;;;29.21;21.78;100527.88;1733940;81;21164;-71
2021/08/30 15:49:12;;;;;;;17.90;7.28;;;;;;;29.12;22.02;100526.66;1768909;81;21249;-76
2021/08/30 15:51:44;;;;;;;;;;;;;;;29.00;22.27;100518.70;1770709;81;21324;-76
2021/08/30 15:54:17;;;;;;;38.65;18.98;;;;;;;28.89;22.58;100524.20;1769164;81;20222;-76
2021/08/30 15:56:50;;;;;;;47.17;20.32;;;;;;;28.75;22.78;100523.77;1769245;81;21146;-75
2021/08/30 15:59:25;;;;;;;26.60;10.68;;;;;;;28.64;23.09;100532.74;1768431;81;21316;-76
2021/08/30 16:01:58;;;;;;;18.77;7.78;;;;;;;28.50;23.40;100523.34;1768400;81;21295;-74
2021/08/30 16:04:31;;;;;;;;;;;;;;;28.36;23.55;100525.57;1770702;81;21308;-76
2021/08/30 16:07:04;;;;;;;21.60;8.00;;;;;;;28.24;23.87;100528.05;1767719;81;20293;-76
2021/08/30 16:09:37;;;;;;;;;;;;;;;28.08;24.09;100528.34;1771017;81;21265;-77
2021/08/30 16:12:10;;;;;;;18.77;8.25;;;;;;;27.94;24.40;100531.03;1768112;81;20233;-77
2021/08/30 16:14:44;;;;;;;37.28;13.05;;;;;;;27.78;24.62;100529.94;1767788;80;21147;-75
2021/08/30 16:17:18;;;;;;;37.10;14.73;;;;;;;27.65;24.76;100534.28;1756926;81;21154;-78
2021/08/30 16:19:52;;;;;;;44.60;18.92;;;;;;;27.52;25.04;100533.20;1769397;81;21257;-78
2021/08/30 16:22:25;;;;;;;41.45;20.95;;;;;;;27.37;25.24;100535.07;1768308;81;21319;-75
2021/08/30 16:24:58;;;;;;;42.00;18.37;;;;;;;27.25;25.51;100534.81;1771515;80;21308;-76
2021/08/30 16:27:31;;;;;;;63.52;21.97;;;;;;;27.12;25.74;100537.74;1780638;80;21340;-75
2021/08/30 16:30:06;;;;;;;80.95;32.67;;;;;;;26.98;25.94;100550.63;1780610;80;21260;-76
2021/08/30 16:32:41;;;;;;;69.35;33.88;;;;;;;26.85;26.20;100540.64;1777849;80;21299;-76
2021/08/30 16:35:14;;;;;;;42.93;22.52;;;;;;;26.74;26.45;100547.64;1780676;80;21244;-75
2021/08/30 16:37:47;;;;;;;36.28;17.73;;;;;;;26.63;26.58;100545.23;1780569;80;21300;-77
2021/08/30 16:40:20;;;;;;;45.10;18.32;;;;;;;26.52;26.81;100543.38;1780651;80;21265;-76
2021/08/30 16:42:53;;;;;;;126.18;69.47;;;;;;;26.43;27.00;100538.58;1778878;79;21364;-77
2021/08/30 16:45:26;;;;;;;;;;;;;;;26.30;27.36;100541.47;1781925;80;21324;-75
2021/08/30 16:47:59;;;;;;;143.43;65.75;;;;;;;26.18;27.46;100548.69;1720548;82;20607;-74
2021/08/30 16:50:34;;;;;;;84.97;32.48;;;;;;;26.05;27.66;100547.84;1697082;84;21162;-73
2021/08/30 16:53:07;;;;;;;59.83;23.10;;;;;;;25.96;27.73;100551.88;1708449;83;21163;-73
2021/08/30 16:55:41;;;;;;;39.27;18.45;;;;;;;25.85;28.00;100551.32;1707771;84;21191;-76
2021/08/30 16:58:14;;;;;;;31.57;15.23;;;;;;;25.75;28.10;100561.77;1682853;84;21853;-77
2021/08/30 17:00:47;;;;;;;37.25;21.73;;;;;;;25.66;28.30;100557.78;1707946;84;21287;-78
2021/08/30 17:03:20;;;;;;;25.62;11.68;;;;;;;25.56;28.35;100560.17;1725928;83;21276;-76
2021/08/30 17:05:54;;;;;;;26.23;12.23;;;;;;;25.48;28.58;100561.02;1742987;82;21343;-76
2021/08/30 17:08:27;;;;;;;27.35;13.40;;;;;;;25.38;28.74;100566.88;1715584;82;21211;-76